createdAt,value
2018-07-23T00:01:02.263Z,21.83
2018-07-23T00:03:30.406Z,66.67
2018-07-23T00:05:57.914Z,31.23
2018-07-23T00:08:25.652Z,22.50
2018-07-23T00:10:53.284Z,16.47
2018-07-23T00:13:20.949Z,16.80
2018-07-23T00:15:48.512Z,18.17
2018-07-23T00:18:16.085Z,25.33
2018-07-23T00:20:44.062Z,18.00
2018-07-23T00:23:11.697Z,14.40
2018-07-23T00:25:39.436Z,18.27
2018-07-23T00:28:06.904Z,19.70
2018-07-23T00:30:34.403Z,16.53
2018-07-23T00:33:01.885Z,18.57
2018-07-23T00:35:29.419Z,15.30
2018-07-23T00:37:56.861Z,22.10
2018-07-23T00:40:24.339Z,15.53
2018-07-23T00:42:51.908Z,14.67
2018-07-23T00:45:19.480Z,15.03
2018-07-23T00:47:47.713Z,14.83
2018-07-23T00:50:15.390Z,15.40
2018-07-23T00:52:43.590Z,14.03
2018-07-23T00:55:11.250Z,13.90
2018-07-23T00:57:38.903Z,16.63
2018-07-23T01:00:06.618Z,13.00
2018-07-23T01:02:34.240Z,14.57
2018-07-23T01:05:01.829Z,14.77
2018-07-23T01:07:30.012Z,14.43
2018-07-23T01:09:57.554Z,14.80
2018-07-23T01:12:28.762Z,13.97
2018-07-23T01:14:56.370Z,23.00
2018-07-23T01:17:24.169Z,15.83
2018-07-23T01:19:54.182Z,15.63
2018-07-23T01:22:22.859Z,14.47
2018-07-23T01:24:50.369Z,14.63
2018-07-23T01:27:18.023Z,18.90
2018-07-23T01:29:45.561Z,14.43
2018-07-23T01:32:13.122Z,14.83
2018-07-23T01:34:40.754Z,18.37
2018-07-23T01:37:10.297Z,17.07
2018-07-23T01:39:37.825Z,15.13
2018-07-23T01:42:06.123Z,14.23
2018-07-23T01:44:34.575Z,14.00
2018-07-23T01:47:02.061Z,14.13
2018-07-23T01:49:29.661Z,13.73
2018-07-23T01:51:57.283Z,13.87
2018-07-23T01:54:25.324Z,13.50
2018-07-23T01:56:53.834Z,14.40
2018-07-23T01:59:22.048Z,13.40
2018-07-23T02:01:49.590Z,14.20
2018-07-23T02:04:17.173Z,13.23
2018-07-23T02:06:44.717Z,14.00
2018-07-23T02:09:13.033Z,12.10
2018-07-23T02:11:40.824Z,15.13
2018-07-23T02:14:09.389Z,13.70
2018-07-23T02:16:37.011Z,14.40
2018-07-23T02:19:04.920Z,13.63
2018-07-23T02:21:33.505Z,14.77
2018-07-23T02:24:01.638Z,16.20
2018-07-23T02:26:29.173Z,15.03
2018-07-23T02:28:57.548Z,14.07
2018-07-23T02:31:25.644Z,14.53
2018-07-23T02:33:53.221Z,19.10
2018-07-23T02:36:20.829Z,14.63
2018-07-23T02:38:48.660Z,17.20
2018-07-23T02:41:16.275Z,15.00
2018-07-23T02:43:44.800Z,16.00
2018-07-23T02:46:12.544Z,14.97
2018-07-23T02:48:40.061Z,17.80
2018-07-23T02:51:07.729Z,15.63
2018-07-23T02:53:35.281Z,14.17
2018-07-23T02:56:02.857Z,15.50
2018-07-23T02:58:30.280Z,14.20
2018-07-23T03:00:58.620Z,14.30
2018-07-23T03:03:26.092Z,14.87
2018-07-23T03:05:53.780Z,13.30
2018-07-23T03:08:22.173Z,13.53
2018-07-23T03:10:50.060Z,14.33
2018-07-23T03:13:18.710Z,13.37
2018-07-23T03:15:46.260Z,13.93
2018-07-23T03:18:13.792Z,18.03
2018-07-23T03:20:41.309Z,13.37
2018-07-23T03:23:08.843Z,18.03
2018-07-23T03:25:36.414Z,13.67
2018-07-23T03:28:05.219Z,14.30
2018-07-23T03:30:34.212Z,14.07
2018-07-23T03:33:01.752Z,15.77
2018-07-23T03:35:30.549Z,14.10
2018-07-23T03:37:58.322Z,15.43
2018-07-23T03:40:25.989Z,15.33
2018-07-23T03:42:53.522Z,14.67
2018-07-23T03:45:21.408Z,15.50
2018-07-23T03:47:49.701Z,17.83
2018-07-23T03:50:17.392Z,17.23
2018-07-23T03:52:45.118Z,13.10
2018-07-23T03:55:12.648Z,15.83
2018-07-23T03:57:40.166Z,15.00
2018-07-23T04:00:07.673Z,14.40
2018-07-23T04:12:25.275Z,13.60
2018-07-23T04:14:52.755Z,14.33
2018-07-23T04:17:20.288Z,19.17
2018-07-23T04:19:47.882Z,13.70
2018-07-23T04:22:15.638Z,14.20
2018-07-23T04:24:43.348Z,18.43
2018-07-23T04:27:11.678Z,15.47
2018-07-23T04:29:39.210Z,22.00
2018-07-23T04:32:06.843Z,17.20
2018-07-23T04:34:34.403Z,15.03
2018-07-23T04:37:01.884Z,16.03
2018-07-23T04:39:29.420Z,17.20
2018-07-23T04:41:56.984Z,13.70
2018-07-23T04:44:24.629Z,15.33
2018-07-23T04:46:52.822Z,14.10
2018-07-23T04:49:20.425Z,15.60
2018-07-23T04:51:49.145Z,16.13
2018-07-23T04:54:16.935Z,15.80
2018-07-23T04:56:44.498Z,14.47
2018-07-23T04:59:12.162Z,13.97
2018-07-23T05:01:39.711Z,13.77
2018-07-23T05:04:09.466Z,17.10
2018-07-23T05:06:37.055Z,14.07
2018-07-23T05:09:08.578Z,14.00
2018-07-23T05:11:36.167Z,16.23
2018-07-23T05:14:04.466Z,14.40
2018-07-23T05:16:32.122Z,36.63
2018-07-23T05:18:59.596Z,22.03
2018-07-23T05:21:27.195Z,15.87
2018-07-23T05:23:54.903Z,15.37
2018-07-23T05:26:23.129Z,15.57
2018-07-23T05:28:50.690Z,14.97
2018-07-23T05:31:18.437Z,14.03
2018-07-23T05:33:45.994Z,14.93
2018-07-23T05:36:13.595Z,26.03
2018-07-23T05:38:41.597Z,26.60
2018-07-23T05:41:09.328Z,23.33
2018-07-23T05:43:36.961Z,16.30
2018-07-23T05:46:05.227Z,18.20
2018-07-23T05:48:33.790Z,16.23
2018-07-23T05:51:01.222Z,15.37
2018-07-23T05:53:29.419Z,15.70
2018-07-23T05:55:56.875Z,14.60
2018-07-23T05:58:25.398Z,19.10
2018-07-23T06:00:53.275Z,15.67
2018-07-23T06:03:21.009Z,18.13
2018-07-23T06:05:48.505Z,23.07
2018-07-23T06:08:15.985Z,17.67
2018-07-23T06:10:43.508Z,16.87
2018-07-23T06:13:11.105Z,17.70
2018-07-23T06:15:38.762Z,18.90
2018-07-23T06:18:07.240Z,28.03
2018-07-23T06:20:35.554Z,20.30
2018-07-23T06:23:03.143Z,26.03
2018-07-23T06:25:30.782Z,18.47
2018-07-23T06:27:58.367Z,16.27
2018-07-23T06:30:25.954Z,18.93
2018-07-23T06:32:53.567Z,18.30
2018-07-23T06:35:21.087Z,18.13
2018-07-23T06:37:48.726Z,16.13
2018-07-23T06:40:16.407Z,14.27
2018-07-23T06:42:43.877Z,15.20
2018-07-23T06:45:11.481Z,13.20
2018-07-23T06:47:39.445Z,13.07
2018-07-23T06:50:07.314Z,11.90
2018-07-23T06:52:35.525Z,14.43
2018-07-23T06:55:03.554Z,12.73
2018-07-23T06:57:31.068Z,12.23
2018-07-23T06:59:58.531Z,16.67
2018-07-23T07:02:26.175Z,14.47
2018-07-23T07:04:53.828Z,16.57
2018-07-23T07:07:21.290Z,15.27
2018-07-23T07:09:48.880Z,23.40
2018-07-23T07:12:16.664Z,18.57
2018-07-23T07:14:44.140Z,19.37
2018-07-23T07:17:11.855Z,12.73
2018-07-23T07:19:39.415Z,12.53
2018-07-23T07:22:06.939Z,12.50
2018-07-23T07:24:35.137Z,11.17
2018-07-23T07:27:02.676Z,8.23
2018-07-23T07:29:30.281Z,9.83
2018-07-23T07:31:57.921Z,8.63
2018-07-23T07:34:25.486Z,7.93
2018-07-23T07:36:53.118Z,9.03
2018-07-23T07:39:20.768Z,7.93
2018-07-23T07:41:48.262Z,7.00
2018-07-23T07:44:16.111Z,8.30
2018-07-23T07:46:43.896Z,9.93
2018-07-23T07:49:11.546Z,8.60
2018-07-23T07:51:39.149Z,6.90
2018-07-23T07:54:07.619Z,6.20
2018-07-23T07:56:35.790Z,6.83
2018-07-23T07:59:04.135Z,7.20
2018-07-23T08:01:31.627Z,9.10
2018-07-23T08:03:59.715Z,7.10
2018-07-23T08:06:27.254Z,6.77
2018-07-23T08:08:54.860Z,6.80
2018-07-23T08:11:22.543Z,7.20
2018-07-23T08:13:50.232Z,6.43
2018-07-23T08:16:17.902Z,6.67
2018-07-23T08:18:45.637Z,9.90
2018-07-23T08:21:13.371Z,6.10
2018-07-23T08:23:41.395Z,7.90
2018-07-23T08:26:08.970Z,7.57
2018-07-23T08:28:37.384Z,6.27
2018-07-23T08:31:04.909Z,7.13
2018-07-23T08:33:32.471Z,6.20
2018-07-23T08:36:00.201Z,8.00
2018-07-23T08:38:28.965Z,7.83
2018-07-23T08:40:56.554Z,7.60
2018-07-23T08:43:24.640Z,9.13
2018-07-23T08:45:53.044Z,6.87
2018-07-23T08:48:20.455Z,6.73
2018-07-23T08:50:48.699Z,6.33
2018-07-23T08:53:16.513Z,6.30
2018-07-23T08:55:44.683Z,6.70
2018-07-23T08:58:12.425Z,6.87
2018-07-23T09:00:40.631Z,6.40
2018-07-23T09:03:08.328Z,6.77
2018-07-23T09:05:35.923Z,10.10
2018-07-23T09:08:04.319Z,6.30
2018-07-23T09:10:32.518Z,7.10
2018-07-23T09:13:00.093Z,6.50
2018-07-23T09:25:17.824Z,7.77
2018-07-23T09:27:45.442Z,9.97
2018-07-23T09:30:18.731Z,12.73
2018-07-23T09:32:46.216Z,9.97
2018-07-23T09:35:13.827Z,12.33
2018-07-23T09:37:41.560Z,9.33
2018-07-23T09:40:09.247Z,14.20
2018-07-23T09:42:37.496Z,8.03
2018-07-23T09:45:05.701Z,10.40
2018-07-23T09:47:33.308Z,8.70
2018-07-23T09:50:01.247Z,8.40
2018-07-23T09:52:28.922Z,11.83
2018-07-23T09:54:56.578Z,11.37
2018-07-23T09:57:24.590Z,10.73
2018-07-23T09:59:52.253Z,8.23
2018-07-23T10:02:19.731Z,8.60
2018-07-23T10:04:48.086Z,14.83
2018-07-23T10:07:15.844Z,9.17
2018-07-23T10:09:43.657Z,11.70
2018-07-23T10:12:11.276Z,12.60
2018-07-23T10:14:40.028Z,16.03
2018-07-23T10:17:08.741Z,9.53
2018-07-23T10:19:36.696Z,10.90
2018-07-23T10:22:04.532Z,8.93
2018-07-23T10:24:32.908Z,8.77
2018-07-23T10:27:16.718Z,11.03
2018-07-23T10:29:45.117Z,13.33
2018-07-23T10:32:12.998Z,14.00
2018-07-23T10:34:41.111Z,22.67
2018-07-23T10:37:09.475Z,11.97
2018-07-23T10:39:37.143Z,19.73
2018-07-23T10:42:05.505Z,21.47
2018-07-23T10:44:33.244Z,13.40
2018-07-23T10:47:00.875Z,20.33
2018-07-23T10:49:28.691Z,12.20
2018-07-23T10:51:56.396Z,13.03
2018-07-23T10:54:23.830Z,11.80
2018-07-23T10:56:51.573Z,11.37
2018-07-23T10:59:19.280Z,12.90
2018-07-23T11:01:46.863Z,9.83
2018-07-23T11:04:14.397Z,11.43
2018-07-23T11:06:42.135Z,10.00
2018-07-23T11:09:10.422Z,12.03
2018-07-23T11:11:37.953Z,11.00
2018-07-23T11:14:05.482Z,10.27
2018-07-23T11:16:33.000Z,10.00
2018-07-23T11:19:01.445Z,14.73
2018-07-23T11:21:29.962Z,9.80
2018-07-23T11:23:57.586Z,10.37
2018-07-23T11:26:25.358Z,10.10
2018-07-23T11:28:54.467Z,14.23
2018-07-23T11:31:22.093Z,12.20
2018-07-23T11:33:50.305Z,10.80
2018-07-23T11:36:18.017Z,9.40
2018-07-23T11:38:45.576Z,8.80
2018-07-23T11:41:13.971Z,8.97
2018-07-23T11:43:41.480Z,11.50
2018-07-23T11:46:09.017Z,9.90
2018-07-23T11:48:38.060Z,9.50
2018-07-23T11:51:06.549Z,11.20
2018-07-23T11:53:34.372Z,10.30
2018-07-23T11:56:02.840Z,14.17
2018-07-23T11:58:31.240Z,11.60
2018-07-23T12:01:00.541Z,9.00
2018-07-23T12:03:28.122Z,9.77
2018-07-23T12:05:57.320Z,10.80
2018-07-23T12:08:25.739Z,9.60
2018-07-23T12:10:53.420Z,8.57
2018-07-23T12:13:21.632Z,9.63
2018-07-23T12:15:49.147Z,10.80
2018-07-23T12:18:16.665Z,9.83
2018-07-23T12:20:44.475Z,12.33
2018-07-23T12:23:11.931Z,10.97
2018-07-23T12:25:39.429Z,11.23
2018-07-23T12:28:07.134Z,9.33
2018-07-23T12:30:34.665Z,10.43
2018-07-23T12:33:03.673Z,8.80
2018-07-23T12:35:31.435Z,9.73
2018-07-23T12:37:58.883Z,10.10
2018-07-23T12:40:26.310Z,10.30
2018-07-23T12:42:54.143Z,10.23
2018-07-23T12:45:22.510Z,11.67
2018-07-23T12:47:50.594Z,8.33
2018-07-23T12:50:18.149Z,12.43
2018-07-23T12:52:47.557Z,10.13
2018-07-23T12:55:14.919Z,12.33
2018-07-23T12:57:42.364Z,9.97
2018-07-23T13:00:09.844Z,9.77
2018-07-23T13:02:37.480Z,14.03
2018-07-23T13:05:05.189Z,15.07
2018-07-23T13:07:32.917Z,8.50
2018-07-23T13:10:01.198Z,10.30
2018-07-23T13:12:29.471Z,9.67
2018-07-23T13:14:58.081Z,10.87
2018-07-23T13:17:26.128Z,10.33
2018-07-23T13:19:54.117Z,9.20
2018-07-23T13:22:22.161Z,8.93
2018-07-23T13:24:50.388Z,8.43
2018-07-23T13:27:18.181Z,9.63
2018-07-23T13:29:45.779Z,8.57
2018-07-23T13:32:13.370Z,9.37
2018-07-23T13:34:41.108Z,8.53
2018-07-23T13:37:10.254Z,8.60
2018-07-23T13:39:38.582Z,10.13
2018-07-23T13:42:06.208Z,8.20
2018-07-23T13:44:33.743Z,9.63
2018-07-23T13:47:01.598Z,7.70
2018-07-23T13:49:29.247Z,7.40
2018-07-23T13:51:56.961Z,7.80
2018-07-23T13:54:24.501Z,7.93
2018-07-23T13:56:52.718Z,11.53
2018-07-23T13:59:20.362Z,8.93
2018-07-23T14:01:47.857Z,8.10
2018-07-23T14:04:15.426Z,8.27
2018-07-23T14:06:43.081Z,8.20
2018-07-23T14:09:12.418Z,7.00
2018-07-23T14:11:41.014Z,8.40
2018-07-23T14:14:08.613Z,7.37
2018-07-23T14:16:36.396Z,8.70
2018-07-23T14:19:04.283Z,7.20
2018-07-23T14:21:32.039Z,10.20
2018-07-23T14:23:59.572Z,6.87
2018-07-23T14:26:27.305Z,8.07
2018-07-23T14:28:56.203Z,6.67
2018-07-23T14:31:23.857Z,6.90
2018-07-23T14:33:52.010Z,6.50
2018-07-23T14:36:19.681Z,7.23
2018-07-23T14:38:47.341Z,6.97
2018-07-23T14:41:15.003Z,7.03
2018-07-23T14:43:43.433Z,6.93
2018-07-23T14:46:11.083Z,15.87
2018-07-23T14:48:38.554Z,6.80
2018-07-23T14:51:26.200Z,8.00
2018-07-23T14:53:56.625Z,7.07
2018-07-23T14:56:26.111Z,6.50
2018-07-23T14:58:53.689Z,7.73
2018-07-23T15:01:21.854Z,7.63
2018-07-23T15:03:49.371Z,6.97
2018-07-23T15:06:16.965Z,6.90
2018-07-23T15:08:44.675Z,8.30
2018-07-23T15:11:12.736Z,7.37
2018-07-23T15:13:40.299Z,7.00
2018-07-23T15:16:08.714Z,6.67
2018-07-23T15:18:36.847Z,8.03
2018-07-23T15:21:05.438Z,8.40
2018-07-23T15:23:33.657Z,7.00
2018-07-23T15:26:01.317Z,6.97
2018-07-23T15:28:28.875Z,6.80
2018-07-23T15:30:56.789Z,6.73
2018-07-23T15:33:24.396Z,6.93
2018-07-23T15:35:52.010Z,6.60
2018-07-23T15:38:19.831Z,6.63
2018-07-23T15:40:47.652Z,7.17
2018-07-23T15:43:16.689Z,6.40
2018-07-23T15:45:44.620Z,6.83
2018-07-23T15:48:12.490Z,6.70
2018-07-23T15:50:40.653Z,6.47
2018-07-23T15:53:08.964Z,6.50
2018-07-23T15:55:36.587Z,7.67
2018-07-23T15:58:04.449Z,6.17
2018-07-23T16:00:32.672Z,7.17
2018-07-23T16:48:53.079Z,6.93
2018-07-23T16:51:20.834Z,6.10
2018-07-23T16:53:49.032Z,8.10
2018-07-23T16:56:16.574Z,7.00
2018-07-23T16:58:46.394Z,7.03
2018-07-23T17:01:13.944Z,12.37
2018-07-23T17:03:41.501Z,7.03
2018-07-23T17:06:09.359Z,8.80
2018-07-23T17:08:37.836Z,8.83
2018-07-23T17:11:06.725Z,7.00
2018-07-23T17:13:34.916Z,5.90
2018-07-23T17:16:03.647Z,5.30
2018-07-23T17:18:31.276Z,7.93
2018-07-23T17:20:59.537Z,7.60
2018-07-23T17:23:28.508Z,9.23
2018-07-23T17:25:56.743Z,9.50
2018-07-23T17:28:24.645Z,6.97
2018-07-23T17:30:53.778Z,5.23
2018-07-23T17:33:21.516Z,7.03
2018-07-23T17:35:49.287Z,8.20
2018-07-23T17:38:17.448Z,5.87
2018-07-23T17:40:45.369Z,7.33
2018-07-23T17:43:13.609Z,5.77
2018-07-23T17:45:41.826Z,5.40
2018-07-23T17:48:09.836Z,5.93
2018-07-23T17:50:38.102Z,4.77
2018-07-23T17:53:07.065Z,7.57
2018-07-23T17:55:35.034Z,7.83
2018-07-23T17:58:03.330Z,8.80
2018-07-23T18:00:31.545Z,8.00
2018-07-23T18:02:59.177Z,6.33
2018-07-23T18:05:26.750Z,7.43
2018-07-23T18:07:55.127Z,5.80
2018-07-23T18:10:22.825Z,6.50
2018-07-23T18:12:50.480Z,6.90
2018-07-23T18:15:18.059Z,6.60
2018-07-23T18:17:45.732Z,5.30
2018-07-23T18:20:13.492Z,7.13
2018-07-23T18:22:41.111Z,6.63
2018-07-23T18:25:08.801Z,8.90
2018-07-23T18:27:36.336Z,11.63
2018-07-23T18:30:05.669Z,6.80
2018-07-23T18:32:33.393Z,6.73
2018-07-23T18:35:00.967Z,8.03
2018-07-23T18:37:29.454Z,6.73
2018-07-23T18:39:56.979Z,9.53
2018-07-23T18:42:25.173Z,7.73
2018-07-23T18:44:53.853Z,7.63
2018-07-23T18:47:21.295Z,6.40
2018-07-23T18:49:54.539Z,5.70
2018-07-23T18:52:23.914Z,6.33
2018-07-23T18:54:53.136Z,5.87
2018-07-23T18:57:20.880Z,10.57
2018-07-23T18:59:49.607Z,6.70
2018-07-23T19:02:18.755Z,6.97
2018-07-23T19:04:47.540Z,5.70
2018-07-23T19:07:15.294Z,7.17
2018-07-23T19:09:43.081Z,6.27
2018-07-23T19:12:11.296Z,7.33
2018-07-23T19:14:39.358Z,19.90
2018-07-23T19:17:09.436Z,8.20
2018-07-23T19:19:38.053Z,10.37
2018-07-23T19:22:06.751Z,12.53
2018-07-23T19:24:35.783Z,10.60
2018-07-23T19:27:04.062Z,12.30
2018-07-23T19:29:33.856Z,9.30
2018-07-23T19:32:01.432Z,9.20
2018-07-23T19:34:30.278Z,10.07
2018-07-23T19:36:58.484Z,15.47
2018-07-23T19:39:27.067Z,9.67
2018-07-23T19:41:56.245Z,12.07
2018-07-23T19:45:45.915Z,11.77
2018-07-23T19:48:16.012Z,12.60
2018-07-23T19:50:44.349Z,11.40
2018-07-23T19:53:11.980Z,15.57
2018-07-23T19:55:40.215Z,9.63
2018-07-23T19:58:08.179Z,11.50
2018-07-23T20:00:36.965Z,11.13
2018-07-23T20:03:05.608Z,8.20
2018-07-23T20:05:33.848Z,12.10
2018-07-23T20:08:01.570Z,9.23
2018-07-23T20:10:30.550Z,7.93
2018-07-23T20:12:59.246Z,9.37
2018-07-23T20:15:28.138Z,12.20
2018-07-23T20:17:56.592Z,9.60
2018-07-23T20:20:24.286Z,9.47
2018-07-23T20:22:51.896Z,11.83
2018-07-23T20:25:20.173Z,10.33
2018-07-23T20:27:48.593Z,12.47
2018-07-23T20:30:16.549Z,11.00
2018-07-23T20:32:44.741Z,9.43
2018-07-23T20:35:13.944Z,9.73
2018-07-23T20:37:41.584Z,10.10
2018-07-23T20:40:09.328Z,10.03
2018-07-23T20:42:37.014Z,19.00
2018-07-23T20:45:04.686Z,20.70
2018-07-23T20:47:33.476Z,12.60
2018-07-23T20:50:01.010Z,15.00
2018-07-23T20:52:28.590Z,17.93
2018-07-23T20:54:56.208Z,13.47
2018-07-23T20:57:24.007Z,11.17
2018-07-23T20:59:52.312Z,10.80
2018-07-23T21:02:20.658Z,13.90
2018-07-23T21:04:48.810Z,11.47
2018-07-23T21:07:16.542Z,17.00
2018-07-23T21:09:45.983Z,18.87
2018-07-23T21:12:14.806Z,12.23
2018-07-23T21:14:42.433Z,11.33
2018-07-23T21:17:10.137Z,10.23
2018-07-23T21:19:37.854Z,10.13
2018-07-23T21:22:05.678Z,10.70
2018-07-23T21:24:33.336Z,10.33
2018-07-23T21:27:01.154Z,9.93
2018-07-23T21:29:28.787Z,11.17
2018-07-23T21:31:59.790Z,20.57
2018-07-23T21:34:28.957Z,21.73
2018-07-23T21:36:58.302Z,20.67
2018-07-23T21:39:26.351Z,17.87
2018-07-23T21:41:54.533Z,19.53
2018-07-23T21:44:22.088Z,19.83
2018-07-23T21:46:49.772Z,15.43
2018-07-23T21:49:18.028Z,15.70
2018-07-23T21:51:46.267Z,14.37
2018-07-23T21:54:13.994Z,18.13
2018-07-23T21:56:41.606Z,13.47
2018-07-23T21:59:09.190Z,13.63
2018-07-23T22:01:36.732Z,13.50
2018-07-23T22:04:05.121Z,12.43
2018-07-23T22:06:32.520Z,16.20
2018-07-23T22:09:00.975Z,13.57
2018-07-23T22:11:28.549Z,12.37
2018-07-23T22:13:56.600Z,14.67
2018-07-23T22:16:24.240Z,12.53
2018-07-23T22:18:52.652Z,15.73
2018-07-23T22:21:20.181Z,21.37
2018-07-23T22:23:48.368Z,20.40
2018-07-23T22:26:15.931Z,20.87
2018-07-23T22:28:44.416Z,19.97
2018-07-23T22:31:12.313Z,14.80
2018-07-23T22:33:43.785Z,14.37
2018-07-23T22:36:12.341Z,29.73
2018-07-23T22:38:41.033Z,13.20
2018-07-23T22:41:08.752Z,15.07
2018-07-23T22:43:37.243Z,14.17
2018-07-23T22:46:04.928Z,14.87
2018-07-23T22:48:32.652Z,15.40
2018-07-23T22:51:00.983Z,13.40
2018-07-23T22:53:29.442Z,13.73
2018-07-23T22:55:57.580Z,13.93
2018-07-23T22:58:25.803Z,16.83
2018-07-23T23:00:55.523Z,13.13
2018-07-23T23:03:23.694Z,14.53
2018-07-23T23:05:51.424Z,25.27
2018-07-23T23:08:20.736Z,16.20
2018-07-23T23:10:48.469Z,15.90
2018-07-23T23:13:17.373Z,14.07
2018-07-23T23:15:44.980Z,15.07
2018-07-23T23:18:12.561Z,14.30
2018-07-23T23:20:40.265Z,14.87
2018-07-23T23:23:08.492Z,14.40
2018-07-23T23:25:35.998Z,13.50
2018-07-23T23:28:03.562Z,13.77
2018-07-23T23:30:31.209Z,14.10
2018-07-23T23:32:58.644Z,13.67
2018-07-23T23:35:26.197Z,15.20
2018-07-23T23:37:53.723Z,17.03
2018-07-23T23:40:22.366Z,14.37
2018-07-23T23:42:49.774Z,17.27
2018-07-23T23:45:17.214Z,14.03
2018-07-23T23:47:44.712Z,14.50
2018-07-23T23:50:13.073Z,14.47
2018-07-23T23:52:40.595Z,15.53
2018-07-23T23:55:09.422Z,15.60
2018-07-23T23:57:37.044Z,14.97
